createdAt,value
2022-08-05T00:00:27.535Z,78.51
2022-08-05T00:02:57.652Z,77.96
2022-08-05T00:06:06.508Z,78.86
2022-08-05T00:08:34.712Z,78.36
2022-08-05T00:11:20.676Z,77.42
2022-08-05T00:13:57.653Z,77.63
2022-08-05T00:16:35.473Z,77.42
2022-08-05T00:19:06.312Z,77.34
2022-08-05T00:21:35.651Z,76.75
2022-08-05T00:24:10.262Z,76.47
2022-08-05T00:26:50.872Z,76.60
2022-08-05T00:29:22.400Z,76.55
2022-08-05T00:32:10.081Z,75.28
2022-08-05T00:34:55.330Z,76.23
2022-08-05T00:37:51.190Z,77.17
2022-08-05T00:40:27.750Z,77.36
2022-08-05T00:43:07.683Z,77.33
2022-08-05T00:45:43.177Z,77.06
2022-08-05T00:48:17.782Z,77.13
2022-08-05T00:50:57.799Z,76.54
2022-08-05T00:54:00.575Z,76.12
2022-08-05T00:56:17.835Z,75.63
2022-08-05T00:58:53.930Z,75.93
2022-08-05T01:01:48.205Z,76.21
2022-08-05T01:04:15.741Z,76.11
2022-08-05T01:06:49.122Z,76.07
2022-08-05T01:09:20.699Z,76.28
2022-08-05T01:11:54.013Z,76.82
2022-08-05T01:14:35.128Z,77.36
2022-08-05T01:17:09.282Z,76.90
2022-08-05T01:20:00.754Z,77.22
2022-08-05T01:22:59.568Z,77.26
2022-08-05T01:26:14.572Z,79.27
2022-08-05T01:28:53.709Z,78.97
2022-08-05T01:31:29.953Z,78.52
2022-08-05T01:34:02.511Z,78.36
2022-08-05T01:36:42.376Z,78.34
2022-08-05T01:39:45.664Z,78.00
2022-08-05T01:42:12.579Z,77.70
2022-08-05T01:44:54.240Z,77.33
2022-08-05T01:47:39.578Z,77.80
2022-08-05T01:50:14.263Z,77.38
2022-08-05T01:52:52.247Z,76.77
2022-08-05T01:55:25.285Z,77.40
2022-08-05T01:58:11.969Z,77.53
2022-08-05T02:00:50.292Z,78.17
2022-08-05T02:03:31.795Z,78.12
2022-08-05T02:06:03.422Z,77.64
2022-08-05T02:08:34.193Z,77.78
2022-08-05T02:11:12.809Z,77.87
2022-08-05T02:13:53.812Z,78.19
2022-08-05T02:16:36.093Z,78.24
2022-08-05T02:19:15.487Z,78.16
2022-08-05T02:21:49.514Z,77.93
2022-08-05T02:24:23.321Z,78.22
2022-08-05T02:26:56.748Z,78.18
2022-08-05T02:29:59.954Z,78.60
2022-08-05T02:32:29.226Z,78.86
2022-08-05T02:35:13.685Z,79.41
2022-08-05T02:37:47.697Z,79.44
2022-08-05T02:40:24.231Z,79.90
2022-08-05T02:42:58.541Z,79.77
2022-08-05T02:45:52.897Z,79.69
2022-08-05T02:48:20.539Z,79.44
2022-08-05T02:51:01.342Z,79.51
2022-08-05T02:53:39.072Z,79.60
2022-08-05T02:56:15.979Z,80.83
2022-08-05T02:58:51.541Z,81.11
2022-08-05T03:01:27.000Z,81.67
2022-08-05T03:04:11.971Z,82.46
2022-08-05T03:06:53.822Z,82.38
2022-08-05T03:09:36.146Z,81.79
2022-08-05T03:12:07.861Z,81.73
2022-08-05T03:14:45.836Z,81.65
2022-08-05T03:17:17.918Z,81.41
2022-08-05T03:19:52.634Z,80.81
2022-08-05T03:22:32.384Z,80.71
2022-08-05T03:25:31.954Z,80.62
2022-08-05T03:27:59.980Z,79.68
2022-08-05T03:30:34.108Z,79.67
2022-08-05T03:33:07.328Z,79.52
2022-08-05T03:35:41.845Z,79.08
2022-08-05T03:38:14.586Z,79.08
2022-08-05T03:40:45.132Z,79.06
2022-08-05T03:44:08.367Z,79.11
2022-08-05T03:46:10.497Z,79.05
2022-08-05T03:48:41.056Z,78.74
2022-08-05T03:52:48.657Z,79.07
2022-08-05T03:55:51.581Z,79.06
2022-08-05T03:57:34.980Z,79.48
2022-08-05T04:00:29.592Z,79.69
2022-08-05T04:03:03.277Z,81.28
2022-08-05T04:05:37.482Z,80.96
2022-08-05T04:08:14.757Z,81.11
2022-08-05T04:11:00.577Z,81.19
2022-08-05T04:13:50.017Z,81.15
2022-08-05T04:16:24.996Z,81.15
2022-08-05T04:18:57.968Z,81.54
2022-08-05T04:22:08.560Z,81.33
2022-08-05T04:24:23.836Z,82.35
2022-08-05T04:26:58.449Z,82.11
2022-08-05T04:29:29.556Z,82.23
2022-08-05T04:31:58.589Z,81.96
2022-08-05T04:34:33.392Z,81.52
2022-08-05T04:37:04.840Z,81.29
2022-08-05T04:39:35.247Z,80.87
2022-08-05T04:42:06.838Z,80.40
2022-08-05T04:44:35.457Z,80.36
2022-08-05T04:47:09.589Z,80.17
2022-08-05T04:50:01.977Z,79.75
2022-08-05T04:52:34.123Z,79.97
2022-08-05T04:55:15.068Z,79.92
2022-08-05T04:57:47.792Z,80.18
2022-08-05T05:00:19.004Z,79.98
2022-08-05T05:02:52.087Z,79.83
2022-08-05T05:05:28.335Z,80.38
2022-08-05T05:08:02.629Z,80.91
2022-08-05T05:10:56.015Z,80.78
2022-08-05T05:13:32.396Z,81.02
2022-08-05T05:16:16.177Z,81.04
2022-08-05T05:19:16.495Z,80.55
2022-08-05T05:21:40.854Z,79.69
2022-08-05T05:24:09.509Z,79.34
2022-08-05T05:26:42.055Z,78.72
2022-08-05T05:29:17.837Z,78.72
2022-08-05T05:31:48.195Z,77.94
2022-08-05T05:34:24.000Z,77.08
2022-08-05T05:36:55.502Z,77.10
2022-08-05T05:39:24.699Z,76.53
2022-08-05T05:42:01.474Z,76.51
2022-08-05T05:44:36.631Z,75.70
2022-08-05T05:47:13.224Z,74.97
2022-08-05T05:49:56.566Z,74.79
2022-08-05T05:52:34.552Z,73.66
2022-08-05T05:55:13.565Z,74.32
2022-08-05T05:57:52.164Z,73.70
2022-08-05T06:00:27.621Z,73.26
2022-08-05T06:03:03.216Z,73.44
2022-08-05T06:05:55.584Z,72.96
2022-08-05T06:08:32.328Z,71.85
2022-08-05T06:11:01.270Z,71.04
2022-08-05T06:13:30.983Z,69.48
2022-08-05T06:16:29.971Z,69.73
2022-08-05T06:19:01.223Z,69.06
2022-08-05T06:21:36.036Z,68.31
2022-08-05T06:24:11.714Z,68.83
2022-08-05T06:26:51.725Z,68.49
2022-08-05T06:29:43.121Z,67.66
2022-08-05T06:32:26.281Z,66.84
2022-08-05T06:34:59.400Z,66.36
2022-08-05T06:37:57.342Z,65.32
2022-08-05T06:40:18.161Z,64.86
2022-08-05T06:42:52.619Z,64.48
2022-08-05T06:45:44.580Z,65.22
2022-08-05T06:48:47.584Z,65.80
2022-08-05T06:51:07.358Z,64.88
2022-08-05T06:53:39.185Z,64.07
2022-08-05T06:56:25.670Z,64.16
2022-08-05T06:58:55.478Z,63.10
2022-08-05T07:01:32.242Z,61.91
2022-08-05T07:04:03.093Z,61.77
2022-08-05T07:06:35.199Z,61.70
2022-08-05T07:09:06.098Z,61.44
2022-08-05T07:11:37.124Z,60.39
2022-08-05T07:14:33.767Z,58.50
2022-08-05T07:18:02.209Z,57.40
2022-08-05T07:22:51.804Z,55.53
2022-08-05T07:25:54.202Z,54.36
2022-08-05T07:28:17.101Z,54.46
2022-08-05T07:30:50.385Z,55.28
2022-08-05T07:33:36.409Z,54.70
2022-08-05T07:36:20.391Z,54.79
2022-08-05T07:38:54.760Z,54.07
2022-08-05T07:42:13.252Z,53.48
2022-08-05T07:44:19.135Z,54.30
2022-08-05T07:46:50.301Z,53.77
2022-08-05T07:49:22.990Z,53.79
2022-08-05T07:51:54.442Z,55.48
2022-08-05T07:54:31.250Z,56.90
2022-08-05T07:57:13.531Z,57.78
2022-08-05T07:59:53.625Z,58.28
2022-08-05T08:02:31.186Z,59.63
2022-08-05T08:05:17.587Z,60.68
2022-08-05T08:08:00.201Z,60.86
2022-08-05T08:10:31.461Z,61.27
2022-08-05T08:13:02.109Z,60.56
2022-08-05T08:16:33.433Z,60.22
2022-08-05T08:18:29.230Z,60.64
2022-08-05T08:21:01.885Z,61.23
2022-08-05T08:24:03.101Z,60.84
2022-08-05T08:26:29.698Z,60.69
2022-08-05T08:29:21.586Z,60.94
2022-08-05T08:31:52.462Z,60.63
2022-08-05T08:34:29.885Z,60.22
2022-08-05T08:37:03.132Z,60.08
2022-08-05T08:39:33.150Z,60.26
2022-08-05T08:42:10.786Z,59.41
2022-08-05T08:45:25.407Z,59.24
2022-08-05T08:48:12.805Z,58.94
2022-08-05T08:51:22.115Z,58.03
2022-08-05T08:53:46.279Z,57.49
2022-08-05T08:56:14.987Z,57.17
2022-08-05T08:58:47.936Z,55.42
2022-08-05T09:01:20.404Z,56.17
2022-08-05T09:03:54.440Z,56.97
2022-08-05T09:06:28.557Z,54.64
2022-08-05T09:09:05.944Z,55.52
2022-08-05T09:11:52.400Z,55.60
2022-08-05T09:14:57.620Z,55.19
2022-08-05T09:17:39.907Z,55.07
2022-08-05T09:20:08.975Z,54.92
2022-08-05T09:23:09.806Z,55.04
2022-08-05T09:26:01.830Z,55.02
2022-08-05T09:28:34.371Z,54.55
2022-08-05T09:31:23.353Z,54.51
2022-08-05T09:33:58.567Z,52.57
2022-08-05T09:36:55.129Z,53.26
2022-08-05T09:39:44.995Z,53.31
2022-08-05T09:42:25.274Z,52.82
2022-08-05T09:45:17.584Z,51.51
2022-08-05T09:47:56.174Z,51.29
2022-08-05T09:50:37.506Z,50.36
2022-08-05T09:53:09.092Z,51.03
2022-08-05T09:55:57.384Z,51.30
2022-08-05T09:58:29.562Z,51.05
2022-08-05T10:01:01.245Z,52.06
2022-08-05T10:03:38.777Z,52.72
2022-08-05T10:06:21.606Z,52.75
2022-08-05T10:08:55.393Z,53.07
2022-08-05T10:11:35.055Z,52.36
2022-08-05T10:14:22.262Z,53.20
2022-08-05T10:16:53.431Z,53.94
2022-08-05T10:20:03.109Z,54.03
2022-08-05T10:22:29.827Z,54.90
2022-08-05T10:25:01.332Z,55.12
2022-08-05T10:58:20.673Z,55.38
2022-08-05T11:00:54.944Z,54.53
2022-08-05T11:03:30.013Z,54.56
2022-08-05T11:06:17.838Z,54.44
2022-08-05T11:09:17.244Z,55.75
2022-08-05T11:11:53.459Z,55.81
2022-08-05T11:15:00.860Z,54.56
2022-08-05T11:17:59.689Z,52.22
2022-08-05T11:20:44.258Z,53.15
2022-08-05T11:24:05.409Z,52.86
2022-08-05T11:26:28.014Z,54.02
2022-08-05T11:29:12.788Z,55.33
2022-08-05T11:31:57.342Z,54.73
2022-08-05T11:34:47.546Z,53.93
2022-08-05T11:38:28.681Z,53.71
2022-08-05T11:41:36.791Z,48.90
2022-08-05T11:44:05.874Z,50.85
2022-08-05T11:46:37.602Z,52.30
2022-08-05T11:49:10.016Z,53.41
2022-08-05T11:51:44.346Z,52.78
2022-08-05T11:54:33.675Z,52.09
2022-08-05T11:57:08.751Z,52.45
2022-08-05T11:59:53.337Z,50.82
2022-08-05T12:02:31.355Z,49.99
2022-08-05T12:05:07.385Z,50.67
2022-08-05T12:08:07.310Z,51.02
2022-08-05T12:10:43.805Z,52.06
2022-08-05T12:13:28.216Z,52.43
2022-08-05T12:16:14.532Z,51.22
2022-08-05T12:18:52.280Z,51.55
2022-08-05T12:21:26.741Z,51.60
2022-08-05T12:24:06.401Z,48.87
2022-08-05T12:26:44.419Z,47.21
2022-08-05T12:29:16.220Z,43.30
2022-08-05T12:31:53.258Z,44.32
2022-08-05T12:34:32.294Z,44.50
2022-08-05T12:37:16.271Z,44.43
2022-08-05T12:40:03.510Z,43.57
2022-08-05T12:42:41.583Z,45.19
2022-08-05T12:45:13.802Z,45.57
2022-08-05T12:48:17.107Z,46.60
2022-08-05T12:50:32.096Z,43.85
2022-08-05T12:53:06.442Z,43.93
2022-08-05T12:55:38.213Z,44.29
2022-08-05T12:58:49.002Z,45.83
2022-08-05T13:02:02.929Z,46.65
2022-08-05T13:03:51.995Z,43.16
2022-08-05T13:06:20.659Z,43.94
2022-08-05T13:08:54.020Z,44.34
2022-08-05T13:11:59.725Z,45.30
2022-08-05T13:14:36.416Z,45.17
2022-08-05T13:17:31.858Z,44.58
2022-08-05T13:20:11.747Z,44.22
2022-08-05T13:22:48.335Z,44.54
2022-08-05T13:25:21.838Z,44.54
2022-08-05T13:27:51.722Z,43.57
2022-08-05T13:30:34.285Z,41.68
2022-08-05T13:33:04.678Z,41.99
2022-08-05T13:35:47.544Z,41.93
2022-08-05T13:38:30.330Z,43.96
2022-08-05T13:41:04.808Z,44.63
2022-08-05T13:43:45.341Z,45.23
2022-08-05T13:46:44.320Z,45.29
2022-08-05T13:49:18.606Z,46.19
2022-08-05T13:51:48.139Z,47.39
2022-08-05T13:54:21.030Z,50.75
2022-08-05T13:56:55.352Z,50.39
2022-08-05T13:59:27.190Z,51.19
2022-08-05T14:02:00.288Z,52.65
2022-08-05T14:04:50.154Z,53.60
2022-08-05T14:07:56.871Z,51.61
2022-08-05T14:10:37.462Z,50.24
2022-08-05T14:13:10.694Z,49.95
2022-08-05T14:16:09.043Z,50.24
2022-08-05T14:18:33.049Z,50.70
2022-08-05T14:21:01.148Z,50.02
2022-08-05T14:23:49.758Z,52.22
2022-08-05T14:26:36.982Z,52.95
2022-08-05T14:29:15.889Z,52.48
2022-08-05T14:32:02.356Z,51.02
2022-08-05T14:34:34.931Z,49.81
2022-08-05T14:37:06.406Z,49.01
2022-08-05T14:39:49.401Z,48.48
2022-08-05T14:42:21.847Z,48.53
2022-08-05T14:44:54.197Z,49.40
2022-08-05T14:48:03.393Z,50.00
2022-08-05T14:50:17.670Z,50.98
2022-08-05T14:52:53.519Z,50.79
2022-08-05T14:55:39.362Z,50.16
2022-08-05T14:58:13.685Z,49.63
2022-08-05T15:00:59.570Z,51.22
2022-08-05T15:03:33.654Z,54.20
2022-08-05T15:06:15.519Z,52.75
2022-08-05T15:09:01.542Z,50.10
2022-08-05T15:11:51.405Z,49.97
2022-08-05T15:14:35.659Z,48.26
2022-08-05T15:17:47.636Z,47.52
2022-08-05T15:20:00.057Z,47.78
2022-08-05T15:22:30.975Z,46.64
2022-08-05T15:24:59.704Z,47.50
2022-08-05T15:27:36.089Z,47.53
2022-08-05T15:30:08.345Z,47.85
2022-08-05T15:32:40.365Z,47.74
2022-08-05T15:35:12.844Z,47.44
2022-08-05T15:38:08.774Z,46.82
2022-08-05T15:41:00.098Z,47.26
2022-08-05T15:43:25.506Z,48.36
2022-08-05T15:46:00.366Z,48.72
2022-08-05T15:48:31.299Z,47.82
2022-08-05T15:51:03.435Z,46.88
2022-08-05T15:53:50.348Z,45.88
2022-08-05T15:56:21.983Z,45.58
2022-08-05T15:58:52.785Z,45.23
2022-08-05T16:01:29.357Z,45.99
2022-08-05T16:04:01.710Z,46.40
2022-08-05T16:06:33.549Z,45.30
2022-08-05T16:09:02.562Z,46.10
2022-08-05T16:11:42.838Z,46.22
2022-08-05T16:14:17.488Z,46.11
2022-08-05T16:16:59.192Z,46.49
2022-08-05T16:20:05.554Z,48.56
2022-08-05T16:22:18.045Z,47.61
2022-08-05T16:25:01.094Z,47.19
2022-08-05T16:28:00.116Z,46.86
2022-08-05T16:30:30.749Z,46.27
2022-08-05T16:33:00.704Z,46.86
2022-08-05T16:35:42.321Z,47.57
2022-08-05T16:38:25.523Z,48.04
2022-08-05T16:41:02.592Z,48.52
2022-08-05T16:43:56.164Z,49.03
2022-08-05T16:46:28.984Z,48.85
2022-08-05T16:48:58.699Z,50.23
2022-08-05T16:51:42.659Z,50.39
2022-08-05T16:54:27.500Z,47.89
2022-08-05T16:57:01.820Z,48.47
2022-08-05T17:00:00.355Z,49.75
2022-08-05T17:02:28.236Z,49.39
2022-08-05T17:04:57.016Z,49.75
2022-08-05T17:07:39.172Z,48.83
2022-08-05T17:10:17.006Z,49.49
2022-08-05T17:12:52.461Z,48.49
2022-08-05T17:15:24.861Z,49.52
2022-08-05T17:18:17.771Z,50.72
2022-08-05T17:20:47.727Z,51.96
2022-08-05T17:24:05.254Z,50.81
2022-08-05T17:26:09.197Z,50.12
2022-08-05T17:28:40.279Z,51.76
2022-08-05T17:31:24.632Z,52.58
2022-08-05T17:34:08.520Z,53.30
2022-08-05T17:36:40.780Z,52.21
2022-08-05T17:39:24.522Z,52.17
2022-08-05T17:42:18.316Z,51.20
2022-08-05T17:44:51.886Z,50.99
2022-08-05T17:47:22.002Z,52.61
2022-08-05T17:50:04.318Z,52.84
2022-08-05T17:52:54.836Z,51.53
2022-08-05T17:55:34.380Z,50.18
2022-08-05T17:58:09.399Z,49.59
2022-08-05T18:00:45.274Z,49.65
2022-08-05T18:03:48.434Z,50.28
2022-08-05T18:06:12.271Z,51.27
2022-08-05T18:08:52.491Z,52.13
2022-08-05T18:11:33.822Z,53.37
2022-08-05T18:14:04.559Z,52.73
2022-08-05T18:16:35.745Z,52.03
2022-08-05T18:19:25.772Z,53.63
2022-08-05T18:22:08.397Z,53.52
2022-08-05T18:24:40.157Z,54.25
2022-08-05T18:27:18.918Z,54.21
2022-08-05T18:29:54.573Z,53.99
2022-08-05T18:32:28.277Z,53.93
2022-08-05T18:34:59.698Z,54.15
2022-08-05T18:37:34.399Z,53.60
2022-08-05T18:41:50.027Z,54.62
2022-08-05T18:43:03.649Z,54.54
2022-08-05T18:45:41.848Z,54.45
2022-08-05T18:48:30.706Z,54.94
2022-08-05T18:52:03.190Z,55.77
2022-08-05T18:54:12.732Z,56.03
2022-08-05T18:56:51.101Z,56.66
2022-08-05T18:59:43.000Z,56.94
2022-08-05T19:02:28.101Z,56.65
2022-08-05T19:05:02.829Z,57.87
2022-08-05T19:07:50.108Z,58.19
2022-08-05T19:10:27.967Z,58.08
2022-08-05T19:12:59.178Z,58.39
2022-08-05T19:15:59.221Z,58.87
2022-08-05T19:18:24.841Z,58.27
2022-08-05T19:20:54.548Z,58.94
2022-08-05T19:24:05.952Z,59.25
2022-08-05T19:26:16.584Z,59.23
2022-08-05T19:28:46.107Z,58.42
2022-08-05T19:31:19.489Z,58.30
2022-08-05T19:33:56.256Z,58.30
2022-08-05T19:36:26.487Z,58.77
2022-08-05T19:39:00.846Z,59.19
2022-08-05T19:42:06.399Z,59.15
2022-08-05T19:44:38.714Z,59.93
2022-08-05T19:47:16.217Z,59.94
2022-08-05T19:49:46.008Z,60.31
2022-08-05T19:52:31.106Z,60.30
2022-08-05T19:56:11.735Z,60.93
2022-08-05T19:58:19.657Z,61.09
2022-08-05T20:00:49.220Z,61.32
2022-08-05T20:03:25.377Z,61.36
2022-08-05T20:05:56.695Z,61.20
2022-08-05T20:08:26.792Z,60.91
2022-08-05T20:10:55.746Z,61.44
2022-08-05T20:13:59.134Z,61.58
2022-08-05T20:16:24.852Z,61.90
2022-08-05T20:18:59.411Z,61.81
2022-08-05T20:21:30.024Z,62.08
2022-08-05T20:23:59.930Z,62.54
2022-08-05T20:26:29.099Z,62.74
2022-08-05T20:29:00.967Z,63.11
2022-08-05T20:31:42.800Z,63.28
2022-08-05T20:34:25.584Z,63.55
2022-08-05T20:36:56.041Z,63.61
2022-08-05T20:39:36.771Z,64.02
2022-08-05T20:42:07.051Z,64.17
2022-08-05T20:44:42.969Z,64.04
2022-08-05T20:47:13.262Z,63.46
2022-08-05T20:49:47.651Z,63.86
2022-08-05T20:52:20.700Z,64.16
2022-08-05T20:55:15.891Z,64.72
2022-08-05T20:57:46.116Z,65.23
2022-08-05T21:00:41.665Z,65.93
2022-08-05T21:03:11.282Z,66.73
2022-08-05T21:05:53.925Z,66.73
2022-08-05T21:08:42.385Z,66.51
2022-08-05T21:11:51.621Z,66.48
2022-08-05T21:14:04.633Z,66.32
2022-08-05T21:16:34.562Z,66.15
2022-08-05T21:19:04.657Z,66.60
2022-08-05T21:21:39.730Z,66.75
2022-08-05T21:25:04.642Z,66.95
2022-08-05T21:27:38.548Z,66.97
2022-08-05T21:30:17.322Z,67.57
2022-08-05T21:32:50.572Z,67.73
2022-08-05T21:35:29.960Z,67.81
2022-08-05T21:38:13.050Z,68.34
2022-08-05T21:40:45.079Z,68.07
2022-08-05T21:43:23.871Z,68.41
2022-08-05T21:45:57.470Z,68.38
2022-08-05T21:48:32.059Z,68.61
2022-08-05T21:51:03.077Z,68.52
2022-08-05T21:53:56.864Z,68.70
2022-08-05T21:56:32.282Z,68.85
2022-08-05T21:59:07.973Z,68.97
2022-08-05T22:01:54.601Z,68.85
2022-08-05T22:04:25.344Z,68.81
2022-08-05T22:06:54.352Z,68.58
2022-08-05T22:09:45.572Z,68.75
2022-08-05T22:12:16.564Z,68.80
2022-08-05T22:14:46.420Z,68.65
2022-08-05T22:17:16.000Z,69.04
2022-08-05T22:20:00.697Z,69.33
2022-08-05T22:22:58.095Z,69.66
2022-08-05T22:26:10.306Z,69.68
2022-08-05T22:28:40.090Z,70.20
2022-08-05T22:31:09.081Z,70.27
2022-08-05T22:33:55.666Z,70.32
2022-08-05T22:36:26.708Z,70.30
2022-08-05T22:38:55.939Z,70.42
2022-08-05T22:42:10.471Z,70.43
2022-08-05T22:44:16.109Z,70.60
2022-08-05T22:46:47.425Z,70.80
2022-08-05T22:50:17.289Z,71.22
2022-08-05T22:52:15.438Z,71.39
2022-08-05T22:54:58.191Z,71.75
2022-08-05T23:00:20.747Z,71.74
2022-08-05T23:02:52.125Z,72.07
2022-08-05T23:05:23.028Z,72.50
2022-08-05T23:07:54.210Z,72.45
2022-08-05T23:10:24.345Z,72.13
2022-08-05T23:12:58.147Z,72.49
2022-08-05T23:15:29.304Z,72.48
2022-08-05T23:18:06.078Z,72.80
2022-08-05T23:20:43.356Z,73.17
2022-08-05T23:23:13.000Z,73.36
2022-08-05T23:25:53.249Z,73.57
2022-08-05T23:28:29.459Z,74.00
2022-08-05T23:31:14.818Z,74.35
2022-08-05T23:34:04.700Z,74.43
2022-08-05T23:36:44.682Z,74.48
2022-08-05T23:39:17.687Z,74.40
